sensor_id;sensor_type;location;lat;lon;timestamp;pressure;altitude;pressure_sealevel;temperature;humidity
83095;BME280;72967;43.674;6.976;2024-03-25T00:02:11;95786.50;;;11.43;31.59
83095;BME280;72967;43.674;6.976;2024-03-25T00:04:36;95790.03;;;11.44;31.39
83095;BME280;72967;43.674;6.976;2024-03-25T00:07:02;95794.38;;;11.45;31.07
83095;BME280;72967;43.674;6.976;2024-03-25T00:09:27;95798.66;;;11.42;31.25
83095;BME280;72967;43.674;6.976;2024-03-25T00:11:53;95803.66;;;11.33;32.03
83095;BME280;72967;43.674;6.976;2024-03-25T00:14:22;95790.16;;;11.21;30.72
83095;BME280;72967;43.674;6.976;2024-03-25T00:16:48;95785.06;;;11.23;31.02
83095;BME280;72967;43.674;6.976;2024-03-25T00:19:13;95805.25;;;11.34;30.73
83095;BME280;72967;43.674;6.976;2024-03-25T00:21:39;95760.13;;;11.09;30.71
83095;BME280;72967;43.674;6.976;2024-03-25T00:24:04;95800.91;;;11.33;31.25
83095;BME280;72967;43.674;6.976;2024-03-25T00:26:30;95801.28;;;11.32;31.63
83095;BME280;72967;43.674;6.976;2024-03-25T00:28:56;95809.50;;;11.28;32.34
83095;BME280;72967;43.674;6.976;2024-03-25T00:31:21;95819.25;;;11.22;32.13
83095;BME280;72967;43.674;6.976;2024-03-25T00:33:46;95819.59;;;11.21;32.66
83095;BME280;72967;43.674;6.976;2024-03-25T00:36:12;95818.41;;;11.18;32.58
83095;BME280;72967;43.674;6.976;2024-03-25T00:38:37;95808.13;;;11.15;32.79
83095;BME280;72967;43.674;6.976;2024-03-25T00:41:03;95808.31;;;10.99;33.28
83095;BME280;72967;43.674;6.976;2024-03-25T00:43:29;95812.97;;;10.65;33.95
83095;BME280;72967;43.674;6.976;2024-03-25T00:45:54;95806.16;;;10.82;33.13
83095;BME280;72967;43.674;6.976;2024-03-25T00:48:19;95807.13;;;10.97;33.24
83095;BME280;72967;43.674;6.976;2024-03-25T00:50:45;95802.09;;;11.02;32.64
83095;BME280;72967;43.674;6.976;2024-03-25T00:53:10;95793.84;;;11.02;33.15
83095;BME280;72967;43.674;6.976;2024-03-25T00:55:37;95784.69;;;10.95;33.14
83095;BME280;72967;43.674;6.976;2024-03-25T00:58:02;95804.13;;;11.09;32.97
83095;BME280;72967;43.674;6.976;2024-03-25T01:00:28;95808.53;;;11.14;31.89
83095;BME280;72967;43.674;6.976;2024-03-25T01:02:53;95809.41;;;11.21;31.97
83095;BME280;72967;43.674;6.976;2024-03-25T01:05:19;95811.00;;;11.22;32.90
83095;BME280;72967;43.674;6.976;2024-03-25T01:07:44;95805.06;;;11.20;32.81
83095;BME280;72967;43.674;6.976;2024-03-25T01:10:09;95810.53;;;11.17;32.63
83095;BME280;72967;43.674;6.976;2024-03-25T01:12:35;95818.41;;;11.18;32.46
83095;BME280;72967;43.674;6.976;2024-03-25T01:15:01;95814.09;;;11.21;33.44
83095;BME280;72967;43.674;6.976;2024-03-25T01:17:28;95813.75;;;11.22;33.87
83095;BME280;72967;43.674;6.976;2024-03-25T01:19:53;95804.19;;;11.13;34.83
83095;BME280;72967;43.674;6.976;2024-03-25T01:22:19;95817.69;;;11.25;35.05
83095;BME280;72967;43.674;6.976;2024-03-25T01:24:44;95812.97;;;11.25;35.52
83095;BME280;72967;43.674;6.976;2024-03-25T01:27:09;95803.53;;;11.23;35.91
83095;BME280;72967;43.674;6.976;2024-03-25T01:29:35;95793.25;;;11.20;35.65
83095;BME280;72967;43.674;6.976;2024-03-25T01:32:00;95792.47;;;11.19;35.64
83095;BME280;72967;43.674;6.976;2024-03-25T01:34:27;95795.22;;;11.19;33.52
83095;BME280;72967;43.674;6.976;2024-03-25T01:36:53;95791.56;;;11.08;33.27
83095;BME280;72967;43.674;6.976;2024-03-25T01:39:18;95804.88;;;11.06;33.52
83095;BME280;72967;43.674;6.976;2024-03-25T01:41:44;95806.84;;;11.05;33.95
83095;BME280;72967;43.674;6.976;2024-03-25T01:44:12;95800.50;;;11.01;33.72
83095;BME280;72967;43.674;6.976;2024-03-25T01:46:37;95800.53;;;11.05;33.10
83095;BME280;72967;43.674;6.976;2024-03-25T01:49:04;95805.66;;;11.03;32.82
83095;BME280;72967;43.674;6.976;2024-03-25T01:51:29;95797.78;;;11.05;33.03
83095;BME280;72967;43.674;6.976;2024-03-25T01:53:56;95794.69;;;11.06;32.90
83095;BME280;72967;43.674;6.976;2024-03-25T01:56:23;95796.19;;;11.04;33.09
83095;BME280;72967;43.674;6.976;2024-03-25T01:58:49;95787.03;;;10.93;33.14
83095;BME280;72967;43.674;6.976;2024-03-25T02:01:15;95802.78;;;10.96;33.49
83095;BME280;72967;43.674;6.976;2024-03-25T02:03:42;95791.75;;;10.92;33.87
83095;BME280;72967;43.674;6.976;2024-03-25T02:06:12;95788.25;;;10.95;33.71
83095;BME280;72967;43.674;6.976;2024-03-25T02:08:38;95780.66;;;10.85;33.99
83095;BME280;72967;43.674;6.976;2024-03-25T02:11:04;95787.69;;;10.83;34.03
83095;BME280;72967;43.674;6.976;2024-03-25T02:13:30;95794.72;;;10.80;33.95
83095;BME280;72967;43.674;6.976;2024-03-25T02:15:56;95786.78;;;10.75;33.22
83095;BME280;72967;43.674;6.976;2024-03-25T02:18:21;95796.63;;;10.76;33.28
83095;BME280;72967;43.674;6.976;2024-03-25T02:20:47;95782.91;;;10.80;32.78
83095;BME280;72967;43.674;6.976;2024-03-25T02:23:13;95789.66;;;10.82;32.25
83095;BME280;72967;43.674;6.976;2024-03-25T02:25:41;95780.31;;;10.90;32.21
83095;BME280;72967;43.674;6.976;2024-03-25T02:28:07;95792.94;;;10.95;31.74
83095;BME280;72967;43.674;6.976;2024-03-25T02:30:33;95798.91;;;11.00;31.27
83095;BME280;72967;43.674;6.976;2024-03-25T02:32:58;95784.84;;;10.76;32.25
83095;BME280;72967;43.674;6.976;2024-03-25T02:35:25;95770.63;;;10.70;32.64
83095;BME280;72967;43.674;6.976;2024-03-25T02:37:52;95790.81;;;10.81;31.46
83095;BME280;72967;43.674;6.976;2024-03-25T02:40:19;95780.53;;;10.78;31.99
83095;BME280;72967;43.674;6.976;2024-03-25T02:42:44;95783.56;;;10.70;32.69
83095;BME280;72967;43.674;6.976;2024-03-25T02:45:10;95784.47;;;10.77;32.48
83095;BME280;72967;43.674;6.976;2024-03-25T02:47:36;95797.09;;;10.82;32.69
83095;BME280;72967;43.674;6.976;2024-03-25T02:50:01;95785.66;;;10.80;32.15
83095;BME280;72967;43.674;6.976;2024-03-25T02:52:26;95766.28;;;10.43;32.99
83095;BME280;72967;43.674;6.976;2024-03-25T02:54:52;95783.47;;;10.36;33.75
83095;BME280;72967;43.674;6.976;2024-03-25T02:57:19;95785.13;;;10.41;33.72
83095;BME280;72967;43.674;6.976;2024-03-25T02:59:44;95782.69;;;10.36;33.06
83095;BME280;72967;43.674;6.976;2024-03-25T03:02:10;95785.13;;;10.41;32.63
83095;BME280;72967;43.674;6.976;2024-03-25T03:04:35;95774.38;;;10.32;32.72
83095;BME280;72967;43.674;6.976;2024-03-25T03:07:00;95775.66;;;10.15;33.21
83095;BME280;72967;43.674;6.976;2024-03-25T03:09:26;95772.75;;;10.05;33.84
83095;BME280;72967;43.674;6.976;2024-03-25T03:11:51;95771.69;;;10.13;33.35
83095;BME280;72967;43.674;6.976;2024-03-25T03:14:17;95776.59;;;10.23;33.50
83095;BME280;72967;43.674;6.976;2024-03-25T03:16:42;95772.84;;;10.35;32.41
83095;BME280;72967;43.674;6.976;2024-03-25T03:19:08;95770.66;;;10.47;29.96
83095;BME280;72967;43.674;6.976;2024-03-25T03:21:33;95773.91;;;10.53;32.27
83095;BME280;72967;43.674;6.976;2024-03-25T03:23:59;95770.78;;;10.54;31.09
83095;BME280;72967;43.674;6.976;2024-03-25T03:26:24;95777.47;;;10.57;31.58
83095;BME280;72967;43.674;6.976;2024-03-25T03:28:53;95776.75;;;10.60;29.67
83095;BME280;72967;43.674;6.976;2024-03-25T03:31:19;95777.06;;;10.55;30.34
83095;BME280;72967;43.674;6.976;2024-03-25T03:33:47;95782.44;;;10.48;32.19
83095;BME280;72967;43.674;6.976;2024-03-25T03:36:13;95784.03;;;10.49;31.62
83095;BME280;72967;43.674;6.976;2024-03-25T03:38:38;95779.19;;;10.39;32.14
83095;BME280;72967;43.674;6.976;2024-03-25T03:41:04;95777.03;;;10.51;29.74
83095;BME280;72967;43.674;6.976;2024-03-25T03:43:29;95774.69;;;10.53;31.23
83095;BME280;72967;43.674;6.976;2024-03-25T03:45:55;95768.78;;;10.51;30.22
83095;BME280;72967;43.674;6.976;2024-03-25T03:48:20;95783.84;;;10.61;29.44
83095;BME280;72967;43.674;6.976;2024-03-25T03:50:45;95780.22;;;10.57;29.45
83095;BME280;72967;43.674;6.976;2024-03-25T03:53:11;95787.38;;;10.61;30.16
83095;BME280;72967;43.674;6.976;2024-03-25T03:55:37;95798.78;;;10.63;30.26
83095;BME280;72967;43.674;6.976;2024-03-25T03:58:03;95802.75;;;10.66;29.57
83095;BME280;72967;43.674;6.976;2024-03-25T04:00:28;95798.63;;;10.53;31.28
83095;BME280;72967;43.674;6.976;2024-03-25T04:02:54;95799.91;;;10.59;31.05
83095;BME280;72967;43.674;6.976;2024-03-25T04:05:20;95796.81;;;10.38;31.65
83095;BME280;72967;43.674;6.976;2024-03-25T04:07:45;95802.22;;;10.31;31.57
83095;BME280;72967;43.674;6.976;2024-03-25T04:10:11;95785.38;;;10.09;32.33
83095;BME280;72967;43.674;6.976;2024-03-25T04:12:36;95795.91;;;10.07;32.56
83095;BME280;72967;43.674;6.976;2024-03-25T04:15:03;95799.28;;;9.97;33.12
83095;BME280;72967;43.674;6.976;2024-03-25T04:17:28;95794.19;;;9.76;33.03
83095;BME280;72967;43.674;6.976;2024-03-25T04:19:54;95787.19;;;9.79;31.65
83095;BME280;72967;43.674;6.976;2024-03-25T04:22:19;95786.09;;;9.84;31.49
83095;BME280;72967;43.674;6.976;2024-03-25T04:24:45;95789.53;;;10.00;31.53
83095;BME280;72967;43.674;6.976;2024-03-25T04:27:10;95789.38;;;9.93;32.58
83095;BME280;72967;43.674;6.976;2024-03-25T04:29:36;95779.13;;;9.90;31.74
83095;BME280;72967;43.674;6.976;2024-03-25T04:32:01;95780.16;;;9.81;31.56
83095;BME280;72967;43.674;6.976;2024-03-25T04:34:28;95786.75;;;9.77;31.82
83095;BME280;72967;43.674;6.976;2024-03-25T04:36:53;95795.19;;;9.88;32.10
83095;BME280;72967;43.674;6.976;2024-03-25T04:39:19;95793.63;;;9.90;31.00
83095;BME280;72967;43.674;6.976;2024-03-25T04:41:44;95798.53;;;10.00;31.23
83095;BME280;72967;43.674;6.976;2024-03-25T04:44:10;95786.63;;;9.93;31.68
83095;BME280;72967;43.674;6.976;2024-03-25T04:46:35;95784.16;;;9.84;31.32
83095;BME280;72967;43.674;6.976;2024-03-25T04:49:01;95785.00;;;9.88;32.01
83095;BME280;72967;43.674;6.976;2024-03-25T04:51:26;95782.16;;;9.85;32.76
83095;BME280;72967;43.674;6.976;2024-03-25T04:53:52;95790.03;;;9.86;32.15
83095;BME280;72967;43.674;6.976;2024-03-25T04:56:18;95788.53;;;9.89;30.78
83095;BME280;72967;43.674;6.976;2024-03-25T04:58:43;95785.59;;;9.78;31.20
83095;BME280;72967;43.674;6.976;2024-03-25T05:01:09;95790.16;;;9.70;31.46
83095;BME280;72967;43.674;6.976;2024-03-25T05:03:34;95790.16;;;9.70;31.68
83095;BME280;72967;43.674;6.976;2024-03-25T05:06:00;95784.63;;;9.67;32.32
83095;BME280;72967;43.674;6.976;2024-03-25T05:08:25;95779.47;;;9.65;32.08
83095;BME280;72967;43.674;6.976;2024-03-25T05:10:50;95778.69;;;9.65;31.97
83095;BME280;72967;43.674;6.976;2024-03-25T05:13:16;95782.22;;;9.65;32.00
83095;BME280;72967;43.674;6.976;2024-03-25T05:15:49;95756.97;;;9.56;31.78
83095;BME280;72967;43.674;6.976;2024-03-25T05:18:16;95764.63;;;9.66;31.30
83095;BME280;72967;43.674;6.976;2024-03-25T05:20:41;95765.41;;;9.67;30.19
83095;BME280;72967;43.674;6.976;2024-03-25T05:23:07;95779.06;;;9.63;31.46
83095;BME280;72967;43.674;6.976;2024-03-25T05:25:32;95765.66;;;9.58;31.03
83095;BME280;72967;43.674;6.976;2024-03-25T05:27:57;95771.44;;;9.76;29.09
83095;BME280;72967;43.674;6.976;2024-03-25T05:30:23;95761.00;;;9.85;29.31
83095;BME280;72967;43.674;6.976;2024-03-25T05:32:48;95758.47;;;9.73;28.71
83095;BME280;72967;43.674;6.976;2024-03-25T05:35:14;95753.81;;;9.77;29.14
83095;BME280;72967;43.674;6.976;2024-03-25T05:37:39;95758.25;;;9.85;28.75
83095;BME280;72967;43.674;6.976;2024-03-25T05:40:05;95765.22;;;10.02;27.34
83095;BME280;72967;43.674;6.976;2024-03-25T05:42:30;95758.69;;;10.10;26.11
83095;BME280;72967;43.674;6.976;2024-03-25T05:44:55;95765.59;;;10.23;25.56
83095;BME280;72967;43.674;6.976;2024-03-25T05:47:21;95765.88;;;10.41;25.42
83095;BME280;72967;43.674;6.976;2024-03-25T05:49:47;95763.53;;;10.43;23.98
83095;BME280;72967;43.674;6.976;2024-03-25T05:52:12;95757.31;;;10.46;24.45
83095;BME280;72967;43.674;6.976;2024-03-25T05:54:37;95755.09;;;10.55;23.88
83095;BME280;72967;43.674;6.976;2024-03-25T05:57:03;95752.06;;;10.63;24.15
83095;BME280;72967;43.674;6.976;2024-03-25T05:59:29;95739.06;;;10.60;24.54
83095;BME280;72967;43.674;6.976;2024-03-25T06:01:54;95756.06;;;10.70;25.49
83095;BME280;72967;43.674;6.976;2024-03-25T06:04:20;95752.22;;;10.74;23.45
83095;BME280;72967;43.674;6.976;2024-03-25T06:06:45;95751.63;;;10.88;23.68
83095;BME280;72967;43.674;6.976;2024-03-25T06:09:10;95760.84;;;11.02;23.17
83095;BME280;72967;43.674;6.976;2024-03-25T06:11:36;95751.19;;;11.19;22.51
83095;BME280;72967;43.674;6.976;2024-03-25T06:14:01;95720.34;;;11.36;21.15
83095;BME280;72967;43.674;6.976;2024-03-25T06:16:27;95761.78;;;11.84;21.18
83095;BME280;72967;43.674;6.976;2024-03-25T06:18:53;95770.94;;;11.95;21.12
83095;BME280;72967;43.674;6.976;2024-03-25T06:21:18;95760.72;;;11.96;20.69
83095;BME280;72967;43.674;6.976;2024-03-25T06:23:44;95749.78;;;12.06;20.76
83095;BME280;72967;43.674;6.976;2024-03-25T06:26:09;95750.88;;;11.98;21.08
83095;BME280;72967;43.674;6.976;2024-03-25T06:28:35;95762.00;;;12.09;20.69
83095;BME280;72967;43.674;6.976;2024-03-25T06:31:00;95759.59;;;12.04;20.25
83095;BME280;72967;43.674;6.976;2024-03-25T06:33:44;95758.00;;;12.03;19.43
83095;BME280;72967;43.674;6.976;2024-03-25T06:36:28;95773.81;;;12.13;20.87
83095;BME280;72967;43.674;6.976;2024-03-25T06:38:53;95780.56;;;12.19;20.02
83095;BME280;72967;43.674;6.976;2024-03-25T06:41:19;95789.31;;;12.28;20.35
83095;BME280;72967;43.674;6.976;2024-03-25T06:43:44;95780.22;;;12.24;20.12
83095;BME280;72967;43.674;6.976;2024-03-25T06:46:09;95773.97;;;12.30;20.43
83095;BME280;72967;43.674;6.976;2024-03-25T06:48:35;95766.63;;;12.49;20.27
83095;BME280;72967;43.674;6.976;2024-03-25T06:51:01;95773.41;;;12.58;20.74
83095;BME280;72967;43.674;6.976;2024-03-25T06:53:30;95773.50;;;12.72;20.33
83095;BME280;72967;43.674;6.976;2024-03-25T06:55:59;95778.56;;;12.63;20.04
83095;BME280;72967;43.674;6.976;2024-03-25T06:58:26;95772.28;;;12.66;20.76
83095;BME280;72967;43.674;6.976;2024-03-25T07:00:52;95787.66;;;12.67;20.80
83095;BME280;72967;43.674;6.976;2024-03-25T07:03:20;95790.03;;;12.69;20.75
83095;BME280;72967;43.674;6.976;2024-03-25T07:05:46;95798.34;;;12.76;21.13
83095;BME280;72967;43.674;6.976;2024-03-25T07:08:12;95788.53;;;12.86;21.35
83095;BME280;72967;43.674;6.976;2024-03-25T07:10:38;95791.72;;;12.84;21.11
83095;BME280;72967;43.674;6.976;2024-03-25T07:13:04;95789.38;;;12.90;21.96
83095;BME280;72967;43.674;6.976;2024-03-25T07:15:31;95778.03;;;13.05;22.41
83095;BME280;72967;43.674;6.976;2024-03-25T07:17:56;95777.00;;;13.35;20.72
83095;BME280;72967;43.674;6.976;2024-03-25T07:20:23;95775.47;;;13.48;20.52
83095;BME280;72967;43.674;6.976;2024-03-25T07:22:48;95774.38;;;13.77;19.61
83095;BME280;72967;43.674;6.976;2024-03-25T07:25:14;95770.47;;;13.96;20.44
83095;BME280;72967;43.674;6.976;2024-03-25T07:27:39;95772.44;;;13.95;19.50
83095;BME280;72967;43.674;6.976;2024-03-25T07:30:06;95776.78;;;14.00;19.92
83095;BME280;72967;43.674;6.976;2024-03-25T07:32:33;95763.78;;;14.08;19.67
83095;BME280;72967;43.674;6.976;2024-03-25T07:34:58;95766.13;;;14.20;19.29
83095;BME280;72967;43.674;6.976;2024-03-25T07:37:23;95785.06;;;13.82;19.03
83095;BME280;72967;43.674;6.976;2024-03-25T07:39:49;95793.75;;;13.91;19.87
83095;BME280;72967;43.674;6.976;2024-03-25T07:42:14;95789.66;;;13.43;19.77
83095;BME280;72967;43.674;6.976;2024-03-25T07:44:40;95796.75;;;13.40;20.53
83095;BME280;72967;43.674;6.976;2024-03-25T07:47:05;95793.59;;;13.42;21.26
83095;BME280;72967;43.674;6.976;2024-03-25T07:49:31;95800.34;;;13.58;21.72
83095;BME280;72967;43.674;6.976;2024-03-25T07:51:59;95801.19;;;13.66;22.09
83095;BME280;72967;43.674;6.976;2024-03-25T07:54:25;95803.13;;;13.58;22.77
83095;BME280;72967;43.674;6.976;2024-03-25T07:56:52;95821.31;;;13.70;23.87
83095;BME280;72967;43.674;6.976;2024-03-25T07:59:17;95811.00;;;13.56;24.40
83095;BME280;72967;43.674;6.976;2024-03-25T08:01:43;95822.06;;;13.56;24.55
83095;BME280;72967;43.674;6.976;2024-03-25T08:04:09;95822.44;;;13.55;25.29
83095;BME280;72967;43.674;6.976;2024-03-25T08:06:34;95825.84;;;13.27;25.37
83095;BME280;72967;43.674;6.976;2024-03-25T08:08:59;95826.22;;;13.18;25.90
83095;BME280;72967;43.674;6.976;2024-03-25T08:11:25;95823.28;;;13.63;26.77
83095;BME280;72967;43.674;6.976;2024-03-25T08:13:50;95820.78;;;13.36;26.61
83095;BME280;72967;43.674;6.976;2024-03-25T08:16:16;95810.22;;;13.56;26.33
83095;BME280;72967;43.674;6.976;2024-03-25T08:18:41;95820.53;;;13.70;26.71
83095;BME280;72967;43.674;6.976;2024-03-25T08:21:06;95818.47;;;13.45;26.04
83095;BME280;72967;43.674;6.976;2024-03-25T08:23:32;95814.53;;;13.46;25.75
83095;BME280;72967;43.674;6.976;2024-03-25T08:25:57;95812.59;;;13.65;25.31
83095;BME280;72967;43.674;6.976;2024-03-25T08:28:22;95811.03;;;13.63;26.08
83095;BME280;72967;43.674;6.976;2024-03-25T08:30:48;95818.88;;;13.58;23.93
83095;BME280;72967;43.674;6.976;2024-03-25T08:33:13;95825.59;;;13.53;25.51
83095;BME280;72967;43.674;6.976;2024-03-25T08:35:38;95822.06;;;13.56;26.33
83095;BME280;72967;43.674;6.976;2024-03-25T08:38:04;95826.41;;;13.68;24.76
83095;BME280;72967;43.674;6.976;2024-03-25T08:40:29;95835.09;;;13.63;25.68
83095;BME280;72967;43.674;6.976;2024-03-25T08:42:55;95832.97;;;13.28;26.08
83095;BME280;72967;43.674;6.976;2024-03-25T08:45:20;95820.38;;;13.34;25.89
83095;BME280;72967;43.674;6.976;2024-03-25T08:47:46;95829.41;;;13.28;27.09
83095;BME280;72967;43.674;6.976;2024-03-25T08:50:11;95847.13;;;13.19;27.05
83095;BME280;72967;43.674;6.976;2024-03-25T08:52:36;95844.72;;;13.14;27.33
83095;BME280;72967;43.674;6.976;2024-03-25T08:55:05;95835.66;;;13.17;27.39
83095;BME280;72967;43.674;6.976;2024-03-25T08:57:31;95838.53;;;13.35;28.32
83095;BME280;72967;43.674;6.976;2024-03-25T08:59:56;95831.47;;;13.41;28.08
83095;BME280;72967;43.674;6.976;2024-03-25T09:02:22;95842.50;;;13.41;28.36
83095;BME280;72967;43.674;6.976;2024-03-25T09:04:47;95836.63;;;13.46;27.73
83095;BME280;72967;43.674;6.976;2024-03-25T09:07:14;95835.41;;;13.44;28.51
83095;BME280;72967;43.674;6.976;2024-03-25T09:09:39;95840.56;;;13.52;28.87
83095;BME280;72967;43.674;6.976;2024-03-25T09:12:24;95843.41;;;13.67;28.65
83095;BME280;72967;43.674;6.976;2024-03-25T09:14:49;95834.38;;;13.84;29.84
83095;BME280;72967;43.674;6.976;2024-03-25T09:17:14;95834.84;;;14.11;30.09
83095;BME280;72967;43.674;6.976;2024-03-25T09:19:41;95836.84;;;14.14;29.59
83095;BME280;72967;43.674;6.976;2024-03-25T09:22:06;95830.06;;;13.97;29.85
83095;BME280;72967;43.674;6.976;2024-03-25T09:24:32;95822.59;;;14.12;30.88
83095;BME280;72967;43.674;6.976;2024-03-25T09:26:58;95826.91;;;13.95;31.13
83095;BME280;72967;43.674;6.976;2024-03-25T09:29:23;95808.75;;;14.01;31.21
83095;BME280;72967;43.674;6.976;2024-03-25T09:31:49;95812.72;;;14.03;30.81
83095;BME280;72967;43.674;6.976;2024-03-25T09:34:14;95828.53;;;14.14;31.93
83095;BME280;72967;43.674;6.976;2024-03-25T09:36:39;95817.06;;;14.01;31.12
83095;BME280;72967;43.674;6.976;2024-03-25T09:39:05;95802.88;;;14.13;31.64
83095;BME280;72967;43.674;6.976;2024-03-25T09:41:31;95819.06;;;14.22;31.89
83095;BME280;72967;43.674;6.976;2024-03-25T09:44:00;95818.25;;;14.11;31.82
83095;BME280;72967;43.674;6.976;2024-03-25T09:46:26;95817.47;;;14.10;32.29
83095;BME280;72967;43.674;6.976;2024-03-25T09:48:53;95794.19;;;14.22;29.71
83095;BME280;72967;43.674;6.976;2024-03-25T09:51:19;95798.16;;;14.24;29.60
83095;BME280;72967;43.674;6.976;2024-03-25T09:53:45;95800.50;;;14.33;30.51
83095;BME280;72967;43.674;6.976;2024-03-25T09:56:13;95803.31;;;14.47;30.55
83095;BME280;72967;43.674;6.976;2024-03-25T09:58:40;95786.28;;;14.20;29.09
83095;BME280;72967;43.674;6.976;2024-03-25T10:01:07;95780.38;;;14.46;29.04
83095;BME280;72967;43.674;6.976;2024-03-25T10:03:32;95785.13;;;14.64;29.43
83095;BME280;72967;43.674;6.976;2024-03-25T10:05:58;95789.50;;;14.43;29.52
83095;BME280;72967;43.674;6.976;2024-03-25T10:08:23;95774.06;;;14.53;29.31
83095;BME280;72967;43.674;6.976;2024-03-25T10:10:55;95771.69;;;14.66;29.36
83095;BME280;72967;43.674;6.976;2024-03-25T10:13:21;95776.81;;;14.67;29.73
83095;BME280;72967;43.674;6.976;2024-03-25T10:15:48;95770.06;;;14.97;29.87
83095;BME280;72967;43.674;6.976;2024-03-25T10:18:13;95762.50;;;15.11;29.68
83095;BME280;72967;43.674;6.976;2024-03-25T10:20:47;95734.91;;;14.83;30.36
83095;BME280;72967;43.674;6.976;2024-03-25T10:23:13;95773.66;;;14.76;30.60
83095;BME280;72967;43.674;6.976;2024-03-25T10:25:39;95760.59;;;14.80;30.26
83095;BME280;72967;43.674;6.976;2024-03-25T10:28:04;95747.19;;;14.71;31.95
83095;BME280;72967;43.674;6.976;2024-03-25T10:30:30;95754.66;;;14.88;31.45
83095;BME280;72967;43.674;6.976;2024-03-25T10:35:28;95754.66;;;14.85;31.90
83095;BME280;72967;43.674;6.976;2024-03-25T10:38:01;95761.34;;;14.98;32.51
83095;BME280;72967;43.674;6.976;2024-03-25T10:40:29;95760.91;;;15.17;32.82
83095;BME280;72967;43.674;6.976;2024-03-25T10:43:21;95760.91;;;15.10;32.60
83095;BME280;72967;43.674;6.976;2024-03-25T10:45:51;95767.72;;;14.92;32.86
83095;BME280;72967;43.674;6.976;2024-03-25T10:48:35;95768.94;;;14.76;33.32
83095;BME280;72967;43.674;6.976;2024-03-25T10:51:03;95766.16;;;14.66;33.07
83095;BME280;72967;43.674;6.976;2024-03-25T10:53:32;95749.94;;;14.68;32.29
83095;BME280;72967;43.674;6.976;2024-03-25T10:56:00;95775.25;;;14.70;32.61
83095;BME280;72967;43.674;6.976;2024-03-25T10:58:27;95775.66;;;14.47;32.95
83095;BME280;72967;43.674;6.976;2024-03-25T11:00:54;95776.06;;;14.49;33.53
83095;BME280;72967;43.674;6.976;2024-03-25T11:03:22;95768.94;;;14.41;33.95
83095;BME280;72967;43.674;6.976;2024-03-25T11:05:48;95775.25;;;14.34;33.71
83095;BME280;72967;43.674;6.976;2024-03-25T11:08:16;95779.59;;;14.14;33.75
83095;BME280;72967;43.674;6.976;2024-03-25T11:10:45;95766.16;;;14.52;34.12
83095;BME280;72967;43.674;6.976;2024-03-25T11:13:17;95770.09;;;14.68;33.72
83095;BME280;72967;43.674;6.976;2024-03-25T11:15:45;95770.06;;;14.82;34.43
83095;BME280;72967;43.674;6.976;2024-03-25T11:18:16;95775.59;;;14.82;33.23
83095;BME280;72967;43.674;6.976;2024-03-25T11:20:42;95770.09;;;14.61;32.26
83095;BME280;72967;43.674;6.976;2024-03-25T11:23:12;95775.25;;;14.49;32.51
83095;BME280;72967;43.674;6.976;2024-03-25T11:25:38;95769.69;;;14.77;33.02
83095;BME280;72967;43.674;6.976;2024-03-25T11:28:04;95759.81;;;14.86;34.04
83095;BME280;72967;43.674;6.976;2024-03-25T11:30:30;95765.28;;;15.04;34.79
83095;BME280;72967;43.674;6.976;2024-03-25T11:32:57;95769.69;;;14.91;36.48
83095;BME280;72967;43.674;6.976;2024-03-25T11:35:23;95768.09;;;14.90;36.07
83095;BME280;72967;43.674;6.976;2024-03-25T11:37:49;95741.25;;;14.80;36.84
83095;BME280;72967;43.674;6.976;2024-03-25T11:40:18;95762.59;;;14.76;37.75
83095;BME280;72967;43.674;6.976;2024-03-25T11:42:45;95749.91;;;14.89;38.40
83095;BME280;72967;43.674;6.976;2024-03-25T11:45:15;95756.16;;;15.14;38.44
83095;BME280;72967;43.674;6.976;2024-03-25T11:47:45;95756.09;;;15.36;38.60
83095;BME280;72967;43.674;6.976;2024-03-25T11:50:13;95760.13;;;15.03;38.76
83095;BME280;72967;43.674;6.976;2024-03-25T11:52:39;95757.34;;;15.17;38.08
83095;BME280;72967;43.674;6.976;2024-03-25T11:55:05;95762.50;;;15.15;40.54
83095;BME280;72967;43.674;6.976;2024-03-25T11:57:30;95758.56;;;15.12;41.56
83095;BME280;72967;43.674;6.976;2024-03-25T11:59:57;95765.16;;;15.43;40.92
83095;BME280;72967;43.674;6.976;2024-03-25T12:02:25;95768.50;;;14.88;41.86
83095;BME280;72967;43.674;6.976;2024-03-25T12:04:50;95763.41;;;14.59;42.69
83095;BME280;72967;43.674;6.976;2024-03-25T12:07:16;95747.59;;;14.59;44.24
83095;BME280;72967;43.674;6.976;2024-03-25T12:09:41;95743.63;;;14.57;46.41
83095;BME280;72967;43.674;6.976;2024-03-25T12:12:26;95742.84;;;14.56;47.92
83095;BME280;72967;43.674;6.976;2024-03-25T12:14:53;95732.53;;;14.78;49.51
83095;BME280;72967;43.674;6.976;2024-03-25T12:17:19;95734.53;;;14.67;51.89
83095;BME280;72967;43.674;6.976;2024-03-25T12:20:07;95735.75;;;14.55;52.19
83095;BME280;72967;43.674;6.976;2024-03-25T12:22:38;95742.88;;;14.38;54.27
83095;BME280;72967;43.674;6.976;2024-03-25T12:25:06;95731.78;;;14.07;54.91
83095;BME280;72967;43.674;6.976;2024-03-25T12:27:33;95725.84;;;13.83;56.41
83095;BME280;72967;43.674;6.976;2024-03-25T12:30:19;95733.34;;;13.86;56.28
83095;BME280;72967;43.674;6.976;2024-03-25T12:32:45;95720.34;;;13.97;56.41
83095;BME280;72967;43.674;6.976;2024-03-25T12:35:12;95717.56;;;14.12;55.84
83095;BME280;72967;43.674;6.976;2024-03-25T12:37:41;95715.19;;;14.21;53.67
83095;BME280;72967;43.674;6.976;2024-03-25T12:40:09;95710.06;;;13.98;51.81
83095;BME280;72967;43.674;6.976;2024-03-25T12:42:36;95705.72;;;14.08;50.64
83095;BME280;72967;43.674;6.976;2024-03-25T12:45:01;95693.47;;;14.05;51.02
83095;BME280;72967;43.674;6.976;2024-03-25T12:47:28;95698.63;;;14.14;53.12
83095;BME280;72967;43.674;6.976;2024-03-25T12:49:54;95700.19;;;13.90;55.43
83095;BME280;72967;43.674;6.976;2024-03-25T12:52:19;95691.09;;;13.79;56.36
83095;BME280;72967;43.674;6.976;2024-03-25T12:54:45;95695.47;;;13.90;57.11
83095;BME280;72967;43.674;6.976;2024-03-25T12:57:13;95688.38;;;13.93;57.72
83095;BME280;72967;43.674;6.976;2024-03-25T12:59:38;95680.03;;;13.68;58.98
83095;BME280;72967;43.674;6.976;2024-03-25T13:02:04;95680.03;;;13.54;60.01